createdAt,value
2022-09-09T00:00:17.244Z,0.50
2022-09-09T00:03:30.083Z,0.70
2022-09-09T00:06:47.633Z,0.57
2022-09-09T00:10:02.884Z,0.70
2022-09-09T00:13:18.879Z,0.70
2022-09-09T00:16:31.762Z,0.60
2022-09-09T00:19:46.720Z,0.50
2022-09-09T00:23:01.860Z,0.60
2022-09-09T00:26:16.545Z,0.80
2022-09-09T00:29:36.603Z,0.60
2022-09-09T00:32:46.550Z,0.50
2022-09-09T00:35:59.277Z,0.70
2022-09-09T00:39:12.272Z,0.80
2022-09-09T00:42:26.587Z,0.60
2022-09-09T00:46:11.962Z,0.60
2022-09-09T00:49:34.278Z,0.63
2022-09-09T00:52:53.121Z,0.70
2022-09-09T00:56:11.855Z,0.55
2022-09-09T00:59:30.558Z,0.53
2022-09-09T01:02:49.911Z,0.60
2022-09-09T01:06:05.566Z,0.60
2022-09-09T01:09:23.450Z,0.80
2022-09-09T01:12:41.023Z,0.67
2022-09-09T01:15:50.741Z,0.60
2022-09-09T01:19:02.123Z,0.50
2022-09-09T01:22:21.246Z,0.60
2022-09-09T01:25:33.849Z,0.68
2022-09-09T01:28:53.636Z,0.70
2022-09-09T01:32:21.174Z,0.47
2022-09-09T01:35:42.416Z,0.73
2022-09-09T01:38:51.022Z,0.60
2022-09-09T01:42:00.496Z,0.60
2022-09-09T01:45:12.341Z,0.60
2022-09-09T01:48:22.485Z,0.80
2022-09-09T01:51:45.423Z,0.63
2022-09-09T01:54:56.320Z,0.70
2022-09-09T01:58:22.005Z,0.90
2022-09-09T02:01:48.597Z,0.70
2022-09-09T02:05:09.435Z,0.80
2022-09-09T02:08:22.641Z,0.80
2022-09-09T02:11:38.021Z,0.77
2022-09-09T02:14:59.979Z,0.80
2022-09-09T02:18:18.755Z,0.70
2022-09-09T02:21:29.578Z,0.93
2022-09-09T02:24:41.097Z,0.90
2022-09-09T02:27:59.810Z,0.70
2022-09-09T02:31:08.663Z,0.77
2022-09-09T02:34:25.798Z,0.87
2022-09-09T02:37:39.238Z,0.83
2022-09-09T02:40:48.415Z,1.00
2022-09-09T02:43:57.944Z,0.57
2022-09-09T02:47:23.718Z,0.77
2022-09-09T02:50:36.364Z,0.60
2022-09-09T02:53:56.032Z,0.70
2022-09-09T02:57:09.990Z,0.73
2022-09-09T03:00:26.527Z,0.80
2022-09-09T03:03:39.143Z,0.93
2022-09-09T03:06:53.722Z,0.70
2022-09-09T03:10:03.331Z,1.00
2022-09-09T03:13:13.879Z,0.80
2022-09-09T03:16:23.104Z,0.80
2022-09-09T03:19:34.631Z,0.80
2022-09-09T03:22:46.033Z,0.80
2022-09-09T03:25:57.868Z,1.00
2022-09-09T03:29:13.333Z,0.70
2022-09-09T03:32:23.497Z,0.80
2022-09-09T03:35:32.232Z,0.87
2022-09-09T03:38:42.381Z,0.70
2022-09-09T03:41:50.845Z,0.65
2022-09-09T03:45:00.431Z,1.00
2022-09-09T03:48:11.119Z,0.90
2022-09-09T03:51:19.519Z,0.77
2022-09-09T03:54:30.247Z,0.80
2022-09-09T03:57:39.401Z,0.70
2022-09-09T04:00:56.494Z,0.80
2022-09-09T04:04:05.178Z,0.87
2022-09-09T04:07:13.847Z,0.80
2022-09-09T04:10:24.207Z,0.80
2022-09-09T04:13:35.106Z,0.80
2022-09-09T04:16:45.698Z,0.90
2022-09-09T04:19:54.607Z,0.80
2022-09-09T04:23:04.576Z,0.70
2022-09-09T04:26:14.460Z,0.70
2022-09-09T04:29:23.038Z,0.70
2022-09-09T04:32:34.895Z,0.80
2022-09-09T04:35:48.818Z,0.70
2022-09-09T04:38:58.284Z,0.90
2022-09-09T04:42:08.902Z,1.00
2022-09-09T04:45:18.301Z,0.70
2022-09-09T04:48:28.388Z,1.00
2022-09-09T04:51:37.171Z,0.90
2022-09-09T04:54:46.810Z,1.17
2022-09-09T04:57:58.435Z,0.98
2022-09-09T05:01:11.504Z,0.90
2022-09-09T05:04:21.533Z,0.73
2022-09-09T05:07:30.108Z,0.73
2022-09-09T05:10:42.859Z,0.77
2022-09-09T05:13:53.310Z,0.85
2022-09-09T05:17:02.035Z,1.00
2022-09-09T05:20:15.582Z,1.00
2022-09-09T05:23:25.764Z,0.93
2022-09-09T05:26:34.201Z,0.97
2022-09-09T05:29:45.880Z,1.00
2022-09-09T05:32:58.353Z,1.00
2022-09-09T05:36:08.981Z,1.00
2022-09-09T05:39:17.469Z,1.00
2022-09-09T05:42:26.153Z,1.13
2022-09-09T05:45:36.078Z,0.93
2022-09-09T05:48:47.329Z,1.00
2022-09-09T05:51:56.193Z,1.00
2022-09-09T05:55:06.696Z,0.90
2022-09-09T05:58:15.689Z,0.90
2022-09-09T06:01:27.986Z,1.00
2022-09-09T06:04:37.793Z,1.00
2022-09-09T06:07:47.328Z,1.10
2022-09-09T06:10:57.469Z,1.08
2022-09-09T06:14:06.883Z,0.95
2022-09-09T06:17:17.165Z,0.88
2022-09-09T06:20:26.206Z,0.73
2022-09-09T06:23:36.073Z,1.37
2022-09-09T06:26:45.582Z,1.00
2022-09-09T06:29:58.256Z,1.00
2022-09-09T06:33:08.196Z,1.10
2022-09-09T06:36:19.198Z,0.85
2022-09-09T06:39:27.660Z,1.10
2022-09-09T06:42:37.009Z,0.90
2022-09-09T06:46:06.800Z,0.82
2022-09-09T06:49:17.183Z,1.00
2022-09-09T06:52:25.919Z,1.08
2022-09-09T06:55:36.063Z,0.90
2022-09-09T06:58:45.990Z,0.90
2022-09-09T07:02:00.773Z,0.80
2022-09-09T07:05:11.753Z,1.03
2022-09-09T07:08:23.315Z,1.00
2022-09-09T07:11:33.886Z,1.00
2022-09-09T07:14:42.429Z,1.00
2022-09-09T07:17:51.877Z,1.25
2022-09-09T07:21:02.147Z,1.00
2022-09-09T07:24:11.758Z,1.10
2022-09-09T07:27:22.998Z,1.00
2022-09-09T07:30:32.539Z,0.90
2022-09-09T07:33:44.508Z,1.02
2022-09-09T07:36:54.754Z,1.02
2022-09-09T07:40:04.808Z,1.10
2022-09-09T07:43:17.255Z,0.90
2022-09-09T07:46:28.069Z,1.13
2022-09-09T07:49:36.640Z,1.05
2022-09-09T07:52:48.144Z,1.20
2022-09-09T07:55:57.315Z,1.10
2022-09-09T07:59:07.421Z,1.08
2022-09-09T08:02:17.099Z,1.10
2022-09-09T08:05:26.703Z,0.77
2022-09-09T08:08:37.211Z,1.02
2022-09-09T08:11:46.302Z,0.85
2022-09-09T08:14:55.776Z,1.20
2022-09-09T08:18:05.722Z,1.05
2022-09-09T08:21:18.302Z,1.05
2022-09-09T08:24:28.190Z,1.17
2022-09-09T08:27:38.189Z,0.90
2022-09-09T08:30:47.157Z,1.10
2022-09-09T08:33:55.953Z,1.10
2022-09-09T08:37:04.611Z,1.25
2022-09-09T08:40:29.158Z,0.88
2022-09-09T08:43:37.977Z,1.20
2022-09-09T08:46:58.862Z,1.08
2022-09-09T08:50:22.666Z,0.88
2022-09-09T08:53:40.271Z,1.27
2022-09-09T08:56:51.121Z,1.05
2022-09-09T09:00:00.584Z,1.10
2022-09-09T09:03:18.594Z,1.10
2022-09-09T09:06:44.408Z,1.27
2022-09-09T09:10:09.096Z,0.90
2022-09-09T09:42:12.465Z,1.20
2022-09-09T09:45:30.586Z,1.10
2022-09-09T09:48:39.936Z,1.10
2022-09-09T09:51:51.230Z,1.05
2022-09-09T09:55:04.046Z,1.40
2022-09-09T09:58:18.909Z,1.30
2022-09-09T10:01:30.712Z,1.10
2022-09-09T10:04:40.432Z,1.20
2022-09-09T10:07:49.524Z,1.33
2022-09-09T10:11:17.699Z,1.35
2022-09-09T10:14:36.352Z,1.00
2022-09-09T10:17:53.413Z,1.63
2022-09-09T10:21:12.362Z,1.27
2022-09-09T10:25:03.995Z,1.17
2022-09-09T10:28:36.019Z,1.23
2022-09-09T10:31:53.119Z,1.60
2022-09-09T10:35:07.125Z,1.05
2022-09-09T10:38:20.531Z,1.20
2022-09-09T10:41:50.441Z,1.10
2022-09-09T10:45:13.178Z,1.27
2022-09-09T10:48:47.308Z,1.20
2022-09-09T10:52:04.127Z,1.30
2022-09-09T10:55:16.202Z,1.60
2022-09-09T10:58:29.329Z,1.23
2022-09-09T11:01:45.767Z,1.35
2022-09-09T11:05:01.690Z,1.20
2022-09-09T11:08:16.649Z,1.40
2022-09-09T11:11:32.143Z,1.50
2022-09-09T11:14:46.067Z,1.23
2022-09-09T11:17:58.949Z,1.40
2022-09-09T11:21:15.844Z,1.10
2022-09-09T11:24:28.911Z,1.30
2022-09-09T11:27:46.275Z,1.58
2022-09-09T11:31:12.559Z,1.30
2022-09-09T11:34:41.187Z,1.67
2022-09-09T11:38:19.071Z,1.52
2022-09-09T11:41:38.563Z,1.30
2022-09-09T11:44:47.464Z,1.20
2022-09-09T11:47:57.548Z,1.33
2022-09-09T11:51:14.629Z,1.50
2022-09-09T11:54:33.183Z,1.50
2022-09-09T11:57:43.101Z,1.42
2022-09-09T12:00:53.379Z,1.50
2022-09-09T12:04:22.405Z,1.40
2022-09-09T12:07:40.279Z,1.33
2022-09-09T12:10:58.329Z,1.40
2022-09-09T12:14:06.801Z,1.38
2022-09-09T12:17:23.174Z,1.35
2022-09-09T12:20:37.021Z,1.60
2022-09-09T12:23:52.046Z,1.50
2022-09-09T12:27:10.572Z,1.50
2022-09-09T12:30:20.640Z,1.40
2022-09-09T12:33:37.071Z,1.40
2022-09-09T12:36:53.221Z,1.70
2022-09-09T12:40:05.475Z,1.50
2022-09-09T12:43:23.381Z,1.38
2022-09-09T12:46:38.417Z,1.30
2022-09-09T12:49:46.983Z,1.50
2022-09-09T12:52:59.483Z,1.60
2022-09-09T12:56:11.121Z,1.40
2022-09-09T12:59:27.086Z,1.15
2022-09-09T13:02:35.915Z,1.30
2022-09-09T13:05:44.608Z,1.38
2022-09-09T13:08:54.186Z,1.20
2022-09-09T13:12:06.986Z,1.08
2022-09-09T13:15:23.590Z,1.33
2022-09-09T13:18:34.817Z,1.45
2022-09-09T13:21:43.607Z,1.20
2022-09-09T13:25:04.064Z,1.20
2022-09-09T13:28:24.065Z,1.10
2022-09-09T13:31:38.256Z,1.27
2022-09-09T13:34:53.625Z,1.10
2022-09-09T13:38:09.557Z,1.15
2022-09-09T13:41:24.629Z,1.40
2022-09-09T13:44:37.495Z,1.10
2022-09-09T13:47:47.796Z,1.20
2022-09-09T13:50:58.422Z,1.05
2022-09-09T13:54:08.375Z,1.02
2022-09-09T13:57:19.160Z,1.10
2022-09-09T14:00:28.249Z,1.10
2022-09-09T14:03:38.410Z,1.00
2022-09-09T14:06:46.930Z,1.00
2022-09-09T14:09:55.325Z,1.20
2022-09-09T14:13:03.889Z,1.20
2022-09-09T14:16:12.650Z,0.93
2022-09-09T14:19:22.537Z,1.10
2022-09-09T14:22:31.024Z,1.05
2022-09-09T14:25:41.735Z,0.90
2022-09-09T14:28:55.214Z,1.10
2022-09-09T14:32:05.409Z,1.08
2022-09-09T14:35:18.318Z,0.80
2022-09-09T14:38:26.980Z,1.15
2022-09-09T14:41:35.414Z,1.20
2022-09-09T14:44:43.762Z,0.93
2022-09-09T14:47:52.420Z,0.88
2022-09-09T14:51:07.667Z,1.05
2022-09-09T14:54:16.297Z,0.80
2022-09-09T14:57:24.691Z,0.93
2022-09-09T15:00:33.130Z,0.80
2022-09-09T15:03:43.293Z,0.88
2022-09-09T15:06:54.292Z,0.90
2022-09-09T15:10:02.702Z,0.73
2022-09-09T15:13:11.162Z,0.77
2022-09-09T15:16:21.395Z,0.70
2022-09-09T15:19:29.898Z,0.90
2022-09-09T15:22:41.140Z,0.50
2022-09-09T15:25:54.128Z,0.80
2022-09-09T15:29:02.884Z,0.90
2022-09-09T15:32:11.277Z,0.70
2022-09-09T15:35:19.646Z,0.75
2022-09-09T15:38:29.405Z,0.80
2022-09-09T15:41:38.392Z,0.73
2022-09-09T15:44:46.874Z,0.50
2022-09-09T15:47:55.664Z,0.98
2022-09-09T15:51:19.517Z,0.70
2022-09-09T15:54:40.061Z,0.60
2022-09-09T15:57:48.689Z,0.85
2022-09-09T16:00:57.242Z,0.50
2022-09-09T16:04:05.970Z,0.85
2022-09-09T16:07:14.616Z,0.80
2022-09-09T16:10:24.421Z,0.68
2022-09-09T16:13:35.834Z,0.80
2022-09-09T16:16:44.672Z,0.50
2022-09-09T16:19:55.163Z,0.77
2022-09-09T16:23:03.815Z,0.50
2022-09-09T16:26:16.505Z,0.80
2022-09-09T16:29:28.302Z,0.70
2022-09-09T16:32:36.724Z,0.50
2022-09-09T16:35:45.670Z,0.52
2022-09-09T16:38:56.185Z,0.70
2022-09-09T16:42:06.498Z,0.70
2022-09-09T16:45:15.311Z,0.65
2022-09-09T16:48:23.958Z,0.60
2022-09-09T16:51:34.603Z,0.57
2022-09-09T16:54:43.002Z,0.98
2022-09-09T16:57:52.784Z,1.90
2022-09-09T17:01:01.470Z,0.95
2022-09-09T17:04:11.796Z,0.90
2022-09-09T17:07:20.586Z,0.60
2022-09-09T17:10:28.995Z,0.50
2022-09-09T17:13:38.861Z,0.77
2022-09-09T17:16:47.776Z,0.60
2022-09-09T17:19:56.340Z,0.70
2022-09-09T17:23:04.746Z,0.70
2022-09-09T17:26:15.084Z,0.60
2022-09-09T17:29:26.022Z,0.77
2022-09-09T17:32:36.671Z,0.80
2022-09-09T17:35:46.506Z,0.68
2022-09-09T17:38:54.992Z,0.73
2022-09-09T17:42:03.635Z,0.50
2022-09-09T17:45:13.635Z,0.93
2022-09-09T17:48:22.057Z,0.60
2022-09-09T17:51:32.221Z,0.60
2022-09-09T17:54:42.010Z,0.90
2022-09-09T17:57:50.394Z,0.60
2022-09-09T18:01:04.956Z,0.80
2022-09-09T18:04:15.195Z,0.63
2022-09-09T18:07:24.804Z,0.75
2022-09-09T18:10:33.336Z,0.60
2022-09-09T18:13:41.758Z,0.85
2022-09-09T18:16:52.065Z,0.60
2022-09-09T18:20:03.343Z,0.98
2022-09-09T18:23:11.884Z,0.80
2022-09-09T18:26:22.119Z,0.65
2022-09-09T18:29:31.232Z,0.70
2022-09-09T18:32:41.346Z,0.88
2022-09-09T18:35:49.828Z,0.90
2022-09-09T18:38:59.387Z,0.80
2022-09-09T18:42:07.987Z,0.75
2022-09-09T18:45:16.785Z,0.70
2022-09-09T18:48:26.591Z,0.95
2022-09-09T18:51:37.183Z,0.80
2022-09-09T18:54:46.177Z,0.90
2022-09-09T18:57:55.102Z,1.00
2022-09-09T19:01:06.196Z,0.80
2022-09-09T19:04:17.021Z,0.75
2022-09-09T19:07:25.413Z,0.80
2022-09-09T19:10:37.618Z,0.80
2022-09-09T19:13:50.847Z,0.80
2022-09-09T19:17:00.459Z,1.10
2022-09-09T19:20:11.338Z,0.85
2022-09-09T19:23:19.738Z,0.77
2022-09-09T19:26:29.608Z,0.98
2022-09-09T19:29:40.385Z,0.90
2022-09-09T19:32:53.695Z,0.85
2022-09-09T19:36:06.660Z,0.90
2022-09-09T19:39:16.238Z,1.03
2022-09-09T19:42:24.700Z,0.90
2022-09-09T19:45:33.066Z,1.00
2022-09-09T19:48:43.482Z,0.98
2022-09-09T19:51:55.214Z,0.80
2022-09-09T19:55:03.625Z,0.90
2022-09-09T19:58:12.029Z,1.00
2022-09-09T20:01:22.790Z,0.95
2022-09-09T20:04:31.207Z,0.80
2022-09-09T20:07:40.995Z,0.70
2022-09-09T20:10:53.633Z,0.98
2022-09-09T20:14:02.077Z,1.00
2022-09-09T20:17:11.168Z,0.95
2022-09-09T20:20:19.727Z,0.80
2022-09-09T20:23:29.990Z,0.88
2022-09-09T20:26:38.675Z,0.60
2022-09-09T20:29:47.205Z,0.82
2022-09-09T20:32:55.646Z,1.08
2022-09-09T20:36:11.562Z,0.90
2022-09-09T20:39:22.215Z,0.90
2022-09-09T20:42:30.605Z,0.85
2022-09-09T20:45:39.341Z,0.90
2022-09-09T20:48:48.547Z,0.90
2022-09-09T20:51:56.970Z,0.85
2022-09-09T20:55:07.675Z,0.90
2022-09-09T20:58:16.072Z,1.00
2022-09-09T21:01:24.498Z,1.10
2022-09-09T21:04:33.061Z,1.10
2022-09-09T21:07:41.499Z,1.15
2022-09-09T21:10:51.398Z,1.15
2022-09-09T21:14:00.060Z,1.00
2022-09-09T21:17:08.477Z,1.10
2022-09-09T21:20:16.998Z,1.17
2022-09-09T21:23:26.106Z,1.00
2022-09-09T21:26:36.499Z,1.25
2022-09-09T21:29:44.930Z,1.03
2022-09-09T21:32:53.366Z,1.00
2022-09-09T21:36:04.747Z,1.02
2022-09-09T21:39:13.812Z,1.00
2022-09-09T21:42:23.586Z,1.00
2022-09-09T21:45:32.007Z,0.98
2022-09-09T21:48:40.518Z,1.10
2022-09-09T21:51:48.914Z,0.80
2022-09-09T21:54:58.017Z,1.13
2022-09-09T21:58:08.567Z,1.23
2022-09-09T22:01:19.904Z,1.05
2022-09-09T22:04:28.422Z,1.05
2022-09-09T22:07:36.856Z,1.20
2022-09-09T22:10:47.075Z,1.00
2022-09-09T22:13:56.844Z,1.15
2022-09-09T22:17:06.441Z,1.20
2022-09-09T22:20:14.804Z,0.90
2022-09-09T22:23:24.369Z,0.90
2022-09-09T22:26:36.236Z,1.20
2022-09-09T22:29:46.224Z,1.05
2022-09-09T22:32:54.920Z,1.20
2022-09-09T22:36:04.038Z,0.95
2022-09-09T22:39:12.474Z,1.10
2022-09-09T22:42:20.886Z,1.10
2022-09-09T22:45:31.321Z,1.10
2022-09-09T22:48:40.532Z,1.07
2022-09-09T22:51:49.014Z,1.20
2022-09-09T22:54:57.536Z,0.93
2022-09-09T22:58:06.029Z,1.10
2022-09-09T23:01:19.297Z,0.90
2022-09-09T23:04:27.898Z,1.17
2022-09-09T23:07:36.750Z,0.90
2022-09-09T23:10:45.353Z,1.03
2022-09-09T23:13:55.999Z,1.10
2022-09-09T23:17:05.826Z,1.00
2022-09-09T23:20:14.225Z,0.90
2022-09-09T23:23:25.906Z,0.93
2022-09-09T23:26:34.737Z,1.00
2022-09-09T23:29:43.211Z,0.80
2022-09-09T23:32:53.002Z,1.00
2022-09-09T23:36:01.767Z,0.70
2022-09-09T23:39:12.209Z,1.13
2022-09-09T23:42:20.630Z,1.10
2022-09-09T23:45:28.985Z,0.90
2022-09-09T23:48:39.548Z,0.73
2022-09-09T23:51:49.657Z,1.10
2022-09-09T23:54:58.074Z,0.93
2022-09-09T23:58:06.579Z,1.00
